Time;durP1;ratioP1;P1;durP2;ratioP2;P2;SDS_P1;SDS_P2;PMS_P1;PMS_P2;Temp;Humidity;BMP_temperature;BMP_pressure;BME280_temperature;BME280_humidity;BME280_pressure;Samples;Min_cycle;Max_cycle;Signal;HPM_P1;HPM_P2
2023/09/06 00:01:54;;;;;;;;;;;;;;;17.28;43.72;101318.09;4891442;28;98146;-70
2023/09/06 00:04:21;;;;;;;;;;;;;;;17.26;43.78;101320.31;4875561;28;98058;-70
2023/09/06 00:06:47;;;;;;;;;;;;;;;17.22;43.78;101320.06;4894446;28;98285;-70
2023/09/06 00:09:14;;;;;;;;;;;;;;;17.18;44.01;101313.59;4883124;28;98123;-77
2023/09/06 00:11:41;;;;;;;;;;;;;;;17.14;44.01;101315.28;4912275;28;98975;-77
2023/09/06 00:14:08;;;;;;;;;;;;;;;17.10;43.57;101320.47;4859600;28;98194;-70
2023/09/06 00:16:35;;;;;;;;;;;;;;;17.06;44.02;101318.63;4883993;28;98669;-77
2023/09/06 00:19:02;;;;;;;;;;;;;;;17.03;43.95;101313.75;4870174;28;101222;-70
2023/09/06 00:21:30;;;;;;;;;;;;;;;16.98;43.89;101320.09;4875733;28;98386;-77
2023/09/06 00:23:56;;;;;;;;;;;;;;;16.91;44.21;101317.69;4880874;28;98087;-77
2023/09/06 00:26:22;;;;;;;;;;;;;;;16.88;43.91;101314.75;4871968;28;98370;-77
2023/09/06 00:28:49;;;;;;;;;;;;;;;16.80;44.06;101318.91;4873831;28;98213;-77
2023/09/06 00:31:15;;;;;;;;;;;;;;;16.73;44.12;101307.53;4880297;28;99561;-70
2023/09/06 00:33:42;;;;;;;;;;;;;;;16.68;44.10;101302.13;4889189;28;98063;-77
2023/09/06 00:36:10;;;;;;;;;;;;;;;16.62;44.11;101304.09;4886904;28;98265;-77
2023/09/06 00:38:38;;;;;;;;;;;;;;;16.57;44.01;101303.31;4876531;28;98571;-77
2023/09/06 00:41:05;;;;;;;;;;;;;;;16.54;44.10;101303.88;4891727;28;98423;-77
2023/09/06 00:43:33;;;;;;;;;;;;;;;16.50;44.05;101302.84;4890683;28;98398;-70
2023/09/06 00:46:06;;;;;;;;;;;;;;;16.47;43.96;101298.81;4876885;28;98045;-70
2023/09/06 00:48:33;;;;;;;;;;;;;;;16.42;44.09;101304.28;4878306;28;98183;-77
2023/09/06 00:50:59;;;;;;;;;;;;;;;16.39;44.08;101307.59;4895756;28;98384;-70
2023/09/06 00:53:26;;;;;;;;;;;;;;;16.33;44.21;101306.81;4899270;28;99502;-70
2023/09/06 00:55:52;;;;;;;;;;;;;;;16.28;44.10;101306.03;4873950;28;97968;-78
2023/09/06 00:58:20;;;;;;;;;;;;;;;16.24;44.14;101310.44;4869678;28;99449;-78
2023/09/06 01:00:46;;;;;;;;;;;;;;;16.20;44.18;101315.63;4874179;28;98206;-78
2023/09/06 01:03:14;;;;;;;;;;;;;;;16.14;43.99;101309.41;4879582;28;103582;-78
2023/09/06 01:06:14;;;;;;;;;;;;;;;16.11;44.07;101309.16;4886607;28;98254;-77
2023/09/06 01:08:45;;;;;;;;;;;;;;;16.07;44.22;101306.22;4891460;28;98020;-71
2023/09/06 01:11:24;;;;;;;;;;;;;;;16.04;44.12;101316.84;4889984;28;98086;-70
2023/09/06 01:14:00;;;;;;;;;;;;;;;16.01;44.30;101315.50;4880891;28;99855;-70
2023/09/06 01:16:37;;;;;;;;;;;;;;;15.96;44.38;101323.69;4888179;28;100484;-77
2023/09/06 01:19:05;;;;;;;;;;;;;;;15.94;44.33;101323.16;4889547;28;98255;-77
2023/09/06 01:22:00;;;;;;;;;;;;;;;15.91;44.15;101321.00;4883691;28;98081;-77
2023/09/06 01:24:28;;;;;;;;;;;;;;;15.88;44.10;101316.94;4903978;28;99024;-77
2023/09/06 01:26:55;;;;;;;;;;;;;;;15.84;44.19;101324.06;4885905;28;98117;-77
2023/09/06 01:29:22;;;;;;;;;;;;;;;15.82;44.32;101314.53;4888968;28;98111;-77
2023/09/06 01:31:49;;;;;;;;;;;;;;;15.80;44.11;101317.56;4896770;28;98086;-70
2023/09/06 01:34:17;;;;;;;;;;;;;;;15.79;44.18;101318.63;4878250;28;98113;-77
2023/09/06 01:36:43;;;;;;;;;;;;;;;15.79;44.04;101323.25;4882553;28;98240;-77
2023/09/06 01:39:10;;;;;;;;;;;;;;;15.78;44.30;101324.34;4890146;28;98608;-78
2023/09/06 01:41:36;;;;;;;;;;;;;;;15.76;44.36;101319.22;4893882;28;98606;-71
2023/09/06 01:44:05;;;;;;;;;;;;;;;15.77;44.12;101320.03;4874128;28;98140;-78
2023/09/06 01:46:31;;;;;;;;;;;;;;;15.75;44.04;101319.47;4891156;28;99190;-70
2023/09/06 01:48:59;;;;;;;;;;;;;;;15.74;44.33;101323.28;4890130;28;98297;-70
2023/09/06 01:51:26;;;;;;;;;;;;;;;15.71;44.13;101324.66;4875285;28;98062;-70
2023/09/06 01:53:52;;;;;;;;;;;;;;;15.69;44.26;101316.00;4880121;28;98097;-70
2023/09/06 01:56:19;;;;;;;;;;;;;;;15.66;44.10;101319.25;4896549;28;99530;-70
2023/09/06 01:58:46;;;;;;;;;;;;;;;15.63;44.18;101312.44;4872034;28;98191;-71
2023/09/06 02:01:13;;;;;;;;;;;;;;;15.61;44.52;101319.25;4877363;28;98212;-77
2023/09/06 02:03:41;;;;;;;;;;;;;;;15.60;44.28;101312.19;4888139;28;98311;-77
2023/09/06 02:06:08;;;;;;;;;;;;;;;15.57;44.29;101310.06;4874250;28;98308;-77
2023/09/06 02:08:35;;;;;;;;;;;;;;;15.55;44.51;101312.22;4896895;28;98253;-78
2023/09/06 02:11:01;;;;;;;;;;;;;;;15.52;44.24;101315.50;4885640;28;98845;-71
2023/09/06 02:13:27;;;;;;;;;;;;;;;15.48;44.34;101307.09;4870943;28;101422;-71
2023/09/06 02:15:54;;;;;;;;;;;;;;;15.44;44.23;101308.72;4889641;28;98314;-78
2023/09/06 02:18:21;;;;;;;;;;;;;;;15.41;44.21;101309.31;4870662;28;98143;-71
2023/09/06 02:20:50;;;;;;;;;;;;;;;15.37;44.32;101303.63;4885768;28;99154;-70
2023/09/06 02:23:17;;;;;;;;;;;;;;;15.35;44.46;101310.41;4884105;28;98882;-78
2023/09/06 02:25:44;;;;;;;;;;;;;;;15.33;44.22;101307.19;4864311;28;99640;-70
2023/09/06 02:28:14;;;;;;;;;;;;;;;15.30;44.16;101316.69;4867667;28;98181;-78
2023/09/06 02:30:41;;;;;;;;;;;;;;;15.27;44.16;101302.84;4868555;28;98014;-70
2023/09/06 02:33:09;;;;;;;;;;;;;;;15.26;44.17;101306.66;4863398;28;98099;-71
2023/09/06 02:35:40;;;;;;;;;;;;;;;15.21;44.58;101313.75;4884982;28;98144;-70
2023/09/06 02:38:07;;;;;;;;;;;;;;;15.17;44.31;101303.72;4863567;28;98880;-71
2023/09/06 02:40:35;;;;;;;;;;;;;;;15.13;44.60;101299.91;4882508;28;97942;-78
2023/09/06 02:43:05;;;;;;;;;;;;;;;15.12;44.33;101303.72;4860570;28;99015;-78
2023/09/06 02:45:38;;;;;;;;;;;;;;;15.09;44.36;101306.97;4899880;28;99972;-70
2023/09/06 02:48:12;;;;;;;;;;;;;;;15.07;44.25;101301.03;4885950;28;98074;-70
2023/09/06 02:50:44;;;;;;;;;;;;;;;15.05;44.23;101309.47;4885512;28;98620;-77
2023/09/06 02:53:31;;;;;;;;;;;;;;;15.03;44.50;101311.63;4874472;28;98188;-71
2023/09/06 02:56:01;;;;;;;;;;;;;;;15.00;44.23;101314.09;4881231;28;98652;-78
2023/09/06 02:58:28;;;;;;;;;;;;;;;14.97;44.48;101321.72;4868770;28;98316;-70
2023/09/06 03:00:57;;;;;;;;;;;;;;;14.96;44.30;101327.41;4865771;28;97959;-71
2023/09/06 03:03:27;;;;;;;;;;;;;;;14.94;44.47;101326.88;4866600;28;98197;-77
2023/09/06 03:06:04;;;;;;;;;;;;;;;14.91;44.60;101328.22;4887242;28;98093;-78
2023/09/06 03:08:30;;;;;;;;;;;;;;;14.90;44.31;101336.66;4849633;28;98308;-71
2023/09/06 03:10:57;;;;;;;;;;;;;;;14.91;44.52;101338.28;4870375;28;98144;-77
2023/09/06 03:13:23;;;;;;;;;;;;;;;14.89;44.51;101335.81;4883690;28;98470;-77
2023/09/06 03:15:52;;;;;;;;;;;;;;;14.88;44.50;101327.97;4851628;28;98026;-70
2023/09/06 03:18:19;;;;;;;;;;;;;;;14.88;44.52;101330.69;4869522;28;98565;-70
2023/09/06 03:20:46;;;;;;;;;;;;;;;14.86;44.56;101341.00;4864981;28;98321;-70
2023/09/06 03:23:19;;;;;;;;;;;;;;;14.85;44.43;101333.94;4877423;28;98279;-70
2023/09/06 03:25:49;;;;;;;;;;;;;;;14.82;44.37;101332.59;4878952;28;98918;-73
2023/09/06 03:28:18;;;;;;;;;;;;;;;14.80;44.57;101337.47;4866903;28;99589;-77
2023/09/06 03:30:45;;;;;;;;;;;;;;;14.78;44.49;101336.13;4866522;28;98314;-77
2023/09/06 03:33:12;;;;;;;;;;;;;;;14.76;44.35;101335.59;4866599;28;99928;-77
2023/09/06 03:35:38;;;;;;;;;;;;;;;14.74;44.52;101330.44;4866826;28;98072;-71
2023/09/06 03:38:15;;;;;;;;;;;;;;;14.69;44.81;101331.25;4865797;28;98201;-71
2023/09/06 03:40:43;;;;;;;;;;;;;;;14.66;44.44;101331.00;4880385;28;98616;-77
2023/09/06 03:43:17;;;;;;;;;;;;;;;14.62;44.49;101321.75;4866023;28;98987;-78
2023/09/06 03:45:54;;;;;;;;;;;;;;;14.59;44.51;101331.28;4886476;28;98015;-71
2023/09/06 03:48:25;;;;;;;;;;;;;;;14.56;44.67;101323.69;4884223;28;98004;-77
2023/09/06 03:50:53;;;;;;;;;;;;;;;14.54;44.40;101322.31;4884285;28;98120;-78
2023/09/06 03:53:20;;;;;;;;;;;;;;;14.52;44.66;101321.78;4848640;28;98362;-71
2023/09/06 03:55:49;;;;;;;;;;;;;;;14.49;44.42;101328.56;4880142;28;97967;-78
2023/09/06 03:58:16;;;;;;;;;;;;;;;14.45;44.76;101327.44;4884947;28;100415;-78
2023/09/06 04:00:44;;;;;;;;;;;;;;;14.43;44.64;101326.91;4838328;28;98185;-72
2023/09/06 04:03:11;;;;;;;;;;;;;;;14.41;44.78;101335.31;4864877;28;100271;-79
2023/09/06 04:05:40;;;;;;;;;;;;;;;14.38;44.36;101338.59;4869017;28;99969;-72
2023/09/06 04:08:08;;;;;;;;;;;;;;;14.35;44.53;101336.41;4883436;28;101760;-79
2023/09/06 04:10:38;;;;;;;;;;;;;;;14.33;44.78;101337.75;4850904;28;98380;-73
2023/09/06 04:13:08;;;;;;;;;;;;;;;14.30;44.79;101338.28;4866215;28;98484;-73
2023/09/06 04:15:42;;;;;;;;;;;;;;;14.28;44.79;101337.78;4867157;28;98098;-79
2023/09/06 04:18:12;;;;;;;;;;;;;;;14.28;44.68;101343.19;4852430;28;97888;-73
2023/09/06 04:20:39;;;;;;;;;;;;;;;14.26;44.73;101338.03;4884894;28;97877;-72
2023/09/06 04:23:08;;;;;;;;;;;;;;;14.25;44.82;101334.50;4863365;28;98245;-73
2023/09/06 04:25:44;;;;;;;;;;;;;;;14.25;44.40;101345.34;4850079;28;100427;-79
2023/09/06 04:28:12;;;;;;;;;;;;;;;14.23;44.39;101344.81;4855851;28;98285;-79
2023/09/06 04:30:41;;;;;;;;;;;;;;;14.20;44.38;101352.69;4870686;28;97905;-72
2023/09/06 04:33:12;;;;;;;;;;;;;;;14.18;44.37;101354.81;4856551;28;98023;-77
2023/09/06 04:35:49;;;;;;;;;;;;;;;14.16;44.81;101359.72;4861779;28;98516;-70
2023/09/06 04:38:16;;;;;;;;;;;;;;;14.13;44.86;101361.06;4846747;28;99222;-70
2023/09/06 04:40:44;;;;;;;;;;;;;;;14.10;44.80;101356.19;4848766;28;98275;-76
2023/09/06 04:43:12;;;;;;;;;;;;;;;14.09;44.74;101359.16;4848015;28;98441;-77
2023/09/06 04:45:39;;;;;;;;;;;;;;;14.07;44.39;101355.91;4862738;28;101733;-76
2023/09/06 04:48:11;;;;;;;;;;;;;;;14.07;44.55;101359.44;4825654;28;98028;-70
2023/09/06 04:50:41;;;;;;;;;;;;;;;14.08;44.47;101357.53;4851557;28;97972;-71
2023/09/06 04:53:08;;;;;;;;;;;;;;;14.09;44.84;101364.59;4866384;28;99294;-71
2023/09/06 04:55:39;;;;;;;;;;;;;;;14.09;44.75;101364.59;4863280;28;98183;-77
2023/09/06 04:58:08;;;;;;;;;;;;;;;14.10;44.71;101367.03;4865930;28;98284;-71
2023/09/06 05:00:41;;;;;;;;;;;;;;;14.13;44.73;101368.38;4856732;28;98247;-77
2023/09/06 05:03:10;;;;;;;;;;;;;;;14.14;44.34;101370.00;4859919;28;98206;-78
2023/09/06 05:05:37;;;;;;;;;;;;;;;14.15;44.45;101369.75;4856981;28;98236;-77
2023/09/06 05:08:04;;;;;;;;;;;;;;;14.17;44.58;101374.91;4871388;28;98082;-77
2023/09/06 05:10:31;;;;;;;;;;;;;;;14.21;44.71;101373.28;4856404;28;98141;-78
2023/09/06 05:12:59;;;;;;;;;;;;;;;14.24;44.34;101375.47;4834656;28;98224;-77
2023/09/06 05:15:26;;;;;;;;;;;;;;;14.29;44.26;101375.44;4888674;28;98331;-77
2023/09/06 05:17:53;;;;;;;;;;;;;;;14.34;44.24;101380.88;4886967;28;98052;-72
2023/09/06 05:20:29;;;;;;;;;;;;;;;14.36;44.29;101381.44;4855850;28;98341;-71
2023/09/06 05:22:56;;;;;;;;;;;;;;;14.38;44.23;101382.00;4867977;28;99729;-78
2023/09/06 05:25:22;;;;;;;;;;;;;;;14.43;44.25;101381.97;4855858;28;98779;-77
2023/09/06 05:27:49;;;;;;;;;;;;;;;14.47;44.28;101385.78;4867282;28;98119;-77
2023/09/06 05:30:15;;;;;;;;;;;;;;;14.57;44.27;101381.47;4864970;28;98093;-72
2023/09/06 05:32:42;;;;;;;;;;;;;;;14.68;44.32;101374.94;4867869;28;98129;-76
2023/09/06 05:35:09;;;;;;;;;;;;;;;14.77;44.13;101377.91;4869260;28;98114;-72
2023/09/06 05:37:37;;;;;;;;;;;;;;;14.86;44.04;101382.53;4870890;28;98163;-72
2023/09/06 05:40:04;;;;;;;;;;;;;;;14.94;44.03;101390.13;4851684;28;98110;-76
2023/09/06 05:42:31;;;;;;;;;;;;;;;15.05;44.34;101392.78;4856146;28;98018;-76
2023/09/06 05:44:58;;;;;;;;;;;;;;;15.12;44.14;101394.13;4846576;28;98099;-76
2023/09/06 05:47:24;;;;;;;;;;;;;;;15.20;44.35;101399.00;4848517;28;98097;-72
2023/09/06 05:49:55;;;;;;;;;;;;;;;15.26;44.09;101391.66;4868723;28;98539;-76
2023/09/06 05:52:22;;;;;;;;;;;;;;;15.34;44.13;101398.44;4879924;28;100717;-72
2023/09/06 05:54:49;;;;;;;;;;;;;;;15.41;44.17;101404.41;4867481;28;98220;-72
2023/09/06 05:57:16;;;;;;;;;;;;;;;15.49;43.89;101411.16;4849141;28;98407;-72
2023/09/06 05:59:43;;;;;;;;;;;;;;;15.53;44.03;101410.31;4866707;28;98483;-72
2023/09/06 06:02:10;;;;;;;;;;;;;;;15.62;43.96;101405.94;4845550;28;98056;-76
2023/09/06 06:04:37;;;;;;;;;;;;;;;15.71;44.23;101411.63;4865578;28;97990;-72
2023/09/06 06:07:03;;;;;;;;;;;;;;;15.82;43.85;101407.78;4853634;28;98071;-71
2023/09/06 06:09:30;;;;;;;;;;;;;;;15.94;44.03;101416.41;4831430;28;98288;-72
2023/09/06 06:11:58;;;;;;;;;;;;;;;16.07;43.79;101415.00;4865119;28;98031;-76
2023/09/06 06:14:28;;;;;;;;;;;;;;;16.20;43.87;101414.34;4850243;28;98813;-72
2023/09/06 06:16:55;;;;;;;;;;;;;;;16.36;43.57;101414.25;4835851;28;98552;-76
2023/09/06 06:19:21;;;;;;;;;;;;;;;16.53;43.62;101411.94;4847538;28;99890;-72
2023/09/06 06:21:50;;;;;;;;;;;;;;;16.69;43.60;101413.44;4868121;28;98177;-76
2023/09/06 06:24:16;;;;;;;;;;;;;;;16.87;43.52;101413.88;4863601;28;97941;-72
2023/09/06 06:26:44;;;;;;;;;;;;;;;17.04;43.49;101414.22;4874706;28;98297;-76
2023/09/06 06:29:11;;;;;;;;;;;;;;;17.20;43.41;101417.59;4865565;28;98125;-73
2023/09/06 06:31:37;;;;;;;;;;;;;;;17.36;43.41;101415.53;4864983;28;98280;-72
2023/09/06 06:34:04;;;;;;;;;;;;;;;17.50;43.25;101412.94;4870968;28;98258;-72
2023/09/06 06:36:32;;;;;;;;;;;;;;;17.73;43.14;101411.28;4856606;28;98375;-75
2023/09/06 06:39:00;;;;;;;;;;;;;;;18.35;43.16;101407.41;4871684;28;98223;-76
2023/09/06 06:41:27;;;;;;;;;;;;;;;18.98;42.88;101408.00;4887709;28;98483;-72
2023/09/06 06:43:53;;;;;;;;;;;;;;;19.10;42.97;101400.16;4868137;28;98162;-72
2023/09/06 06:46:33;;;;;;;;;;;;;;;19.23;42.99;101415.75;4873955;28;98530;-72
2023/09/06 06:49:07;;;;;;;;;;;;;;;19.66;42.72;101412.75;4885737;28;97972;-76
2023/09/06 06:51:35;;;;;;;;;;;;;;;20.49;41.83;101398.84;4872061;28;98249;-76
2023/09/06 06:54:07;;;;;;;;;;;;;;;21.41;40.86;101399.97;4886507;28;98147;-72
2023/09/06 06:56:36;;;;;;;;;;;;;;;20.86;41.92;101396.81;4879705;28;97910;-72
2023/09/06 06:59:03;;;;;;;;;;;;;;;21.06;41.97;101404.47;4854224;28;102980;-76
2023/09/06 07:01:31;;;;;;;;;;;;;;;21.35;41.90;101400.44;4869062;28;99507;-76
2023/09/06 07:03:58;;;;;;;;;;;;;;;21.20;42.48;101399.72;4897214;28;97981;-72
2023/09/06 07:06:24;;;;;;;;;;;;;;;21.15;42.58;101396.31;4866812;28;98085;-72
2023/09/06 07:08:54;;;;;;;;;;;;;;;21.31;42.38;101398.31;4851765;28;98553;-72
2023/09/06 07:11:22;;;;;;;;;;;;;;;22.38;41.20;101401.72;4880687;28;98118;-75
2023/09/06 07:13:49;;;;;;;;;;;;;;;22.21;41.64;101399.81;4869711;28;98220;-71
2023/09/06 07:16:17;;;;;;;;;;;;;;;21.87;42.00;101395.06;4884370;28;97883;-76
2023/09/06 07:18:44;;;;;;;;;;;;;;;21.80;42.36;101403.78;4888841;28;98188;-72
2023/09/06 07:21:10;;;;;;;;;;;;;;;21.72;42.44;101408.13;4869837;28;98292;-76
2023/09/06 07:23:38;;;;;;;;;;;;;;;21.66;42.68;101403.13;4854302;28;99050;-76
2023/09/06 07:26:06;;;;;;;;;;;;;;;21.59;42.68;101409.06;4874173;28;98086;-75
2023/09/06 07:28:40;;;;;;;;;;;;;;;21.54;42.63;101403.72;4858625;28;98128;-71
2023/09/06 07:31:07;;;;;;;;;;;;;;;21.54;42.87;101403.72;4872090;28;97877;-75
2023/09/06 07:33:33;;;;;;;;;;;;;;;21.59;42.64;101411.00;4854308;28;101691;-76
2023/09/06 07:36:00;;;;;;;;;;;;;;;21.68;42.58;101409.06;4863796;28;98031;-71
2023/09/06 07:38:29;;;;;;;;;;;;;;;21.75;42.71;101409.41;4850189;28;98297;-75
2023/09/06 07:40:58;;;;;;;;;;;;;;;21.85;42.46;101409.13;4846800;28;98604;-72
2023/09/06 07:43:28;;;;;;;;;;;;;;;21.98;42.50;101421.06;4845276;28;98395;-72
2023/09/06 07:45:58;;;;;;;;;;;;;;;22.14;42.44;101418.69;4845685;28;98721;-72
2023/09/06 07:48:29;;;;;;;;;;;;;;;22.32;42.13;101417.53;4880601;28;97948;-71
2023/09/06 07:50:56;;;;;;;;;;;;;;;22.57;41.89;101406.88;4848849;28;98277;-72
2023/09/06 07:53:26;;;;;;;;;;;;;;;22.87;41.83;101414.09;4844613;28;98641;-71
2023/09/06 07:55:55;;;;;;;;;;;;;;;23.30;41.24;101415.06;4863771;28;102503;-76
2023/09/06 07:58:21;;;;;;;;;;;;;;;23.81;41.11;101413.19;4846101;28;99665;-71
2023/09/06 08:00:48;;;;;;;;;;;;;;;24.39;40.40;101419.75;4849843;28;98165;-75
2023/09/06 08:03:14;;;;;;;;;;;;;;;25.02;39.96;101419.56;4869372;28;98608;-71
2023/09/06 08:05:41;;;;;;;;;;;;;;;25.71;39.63;101421.47;4854134;28;98840;-75
2023/09/06 08:08:09;;;;;;;;;;;;;;;26.48;39.18;101426.91;4863756;28;98446;-70
2023/09/06 08:10:36;;;;;;;;;;;;;;;27.32;38.63;101412.94;4872968;28;103435;-71
2023/09/06 08:13:03;;;;;;;;;;;;;;;28.21;38.38;101419.66;4866916;28;98650;-71
2023/09/06 08:15:35;;;;;;;;;;;;;;;29.03;37.64;101414.91;4849071;28;98451;-75
2023/09/06 08:18:05;;;;;;;;;;;;;;;29.86;37.67;101408.66;4848536;28;98461;-76
2023/09/06 08:20:32;;;;;;;;;;;;;;;30.69;37.07;101406.47;4855443;28;98158;-76
2023/09/06 08:22:59;;;;;;;;;;;;;;;31.42;36.90;101409.53;4877725;28;98431;-70
2023/09/06 08:25:25;;;;;;;;;;;;;;;32.21;36.37;101412.75;4905908;28;98297;-75
2023/09/06 08:27:51;;;;;;;;;;;;;;;32.97;36.48;101411.72;4866636;28;98409;-75
2023/09/06 08:30:20;;;;;;;;;;;;;;;33.66;36.13;101418.88;4886524;28;117470;-70
2023/09/06 08:32:50;;;;;;;;;;;;;;;34.42;35.73;101422.97;4872721;28;103549;-76
2023/09/06 08:35:17;;;;;;;;;;;;;;;35.01;35.67;101420.19;4887526;28;98097;-71
2023/09/06 08:37:45;;;;;;;;;;;;;;;35.54;35.73;101418.94;4889206;28;99060;-70
2023/09/06 08:40:12;;;;;;;;;;;;;;;36.17;35.40;101413.00;4871086;28;98064;-75
2023/09/06 08:42:38;;;;;;;;;;;;;;;36.82;34.95;101416.47;4886629;28;98093;-70
2023/09/06 08:45:07;;;;;;;;;;;;;;;37.30;35.37;101412.47;4873275;28;107657;-70
2023/09/06 08:47:33;;;;;;;;;;;;;;;37.51;35.55;101408.47;4872045;28;98115;-70
2023/09/06 08:49:59;;;;;;;;;;;;;;;38.01;35.21;101415.16;4886564;28;98283;-75
2023/09/06 08:52:25;;;;;;;;;;;;;;;38.52;34.92;101412.81;4885203;28;98551;-74
2023/09/06 08:54:53;;;;;;;;;;;;;;;39.04;34.96;101423.22;4872014;28;98372;-76
2023/09/06 08:57:20;;;;;;;;;;;;;;;39.30;35.07;101418.53;4886758;28;98021;-76
2023/09/06 08:59:47;;;;;;;;;;;;;;;39.81;34.76;101412.31;4887360;28;98388;-70
2023/09/06 09:02:14;;;;;;;;;;;;;;;40.34;34.47;101416.38;4883051;28;98230;-69
2023/09/06 09:04:42;;;;;;;;;;;;;;;41.01;33.93;101406.19;4866278;28;98321;-76
2023/09/06 09:07:12;;;;;;;;;;;;;;;41.18;34.36;101407.59;4873147;28;98557;-69
2023/09/06 09:10:04;;;;;;;;;;;;;;;41.45;34.29;101405.03;4867280;28;98598;-70
2023/09/06 09:12:30;;;;;;;;;;;;;;;41.73;34.28;101398.75;4884864;28;97934;-70
2023/09/06 09:14:57;;;;;;;;;;;;;;;42.05;33.78;101395.50;4887458;28;99702;-76
2023/09/06 09:17:24;;;;;;;;;;;;;;;42.27;34.09;101394.72;4885479;28;98212;-76
2023/09/06 09:19:54;;;;;;;;;;;;;;;41.89;34.72;101398.56;4868600;28;98149;-70
2023/09/06 09:22:24;;;;;;;;;;;;;;;41.16;35.51;101398.78;4867745;28;98867;-68
2023/09/06 09:24:50;;;;;;;;;;;;;;;40.84;35.78;101389.38;4889583;28;98876;-70
2023/09/06 09:27:18;;;;;;;;;;;;;;;40.95;35.33;101395.44;4883929;28;104356;-70
2023/09/06 09:29:44;;;;;;;;;;;;;;;41.58;34.81;101395.69;4888128;28;98132;-75
2023/09/06 09:32:13;;;;;;;;;;;;;;;42.23;34.28;101386.31;4885589;28;98356;-74
2023/09/06 09:34:41;;;;;;;;;;;;;;;42.70;34.25;101399.44;4891110;28;98578;-75
2023/09/06 09:37:10;;;;;;;;;;;;;;;43.27;33.36;101396.19;4870245;28;98273;-75
2023/09/06 09:39:37;;;;;;;;;;;;;;;43.46;33.20;101394.13;4890304;28;98314;-69
2023/09/06 09:42:08;;;;;;;;;;;;;;;43.41;33.65;101395.56;4868196;28;98267;-76
2023/09/06 09:44:35;;;;;;;;;;;;;;;43.24;33.92;101385.81;4886496;28;98493;-75
2023/09/06 09:47:12;;;;;;;;;;;;;;;43.10;33.99;101384.38;4882862;28;98257;-70
2023/09/06 09:49:42;;;;;;;;;;;;;;;43.26;34.14;101391.78;4864563;28;98783;-75
2023/09/06 09:52:11;;;;;;;;;;;;;;;43.57;33.71;101377.44;4870791;28;97914;-75
2023/09/06 09:54:41;;;;;;;;;;;;;;;43.84;33.62;101376.59;4871677;28;99572;-71
2023/09/06 09:57:07;;;;;;;;;;;;;;;43.74;33.71;101370.13;4886413;28;98153;-71
2023/09/06 09:59:33;;;;;;;;;;;;;;;43.57;33.92;101366.88;4883953;28;98348;-71
2023/09/06 10:02:00;;;;;;;;;;;;;;;43.49;34.16;101368.47;4886424;28;98011;-70
2023/09/06 10:04:27;;;;;;;;;;;;;;;43.19;34.09;101360.91;4870562;28;98182;-70
2023/09/06 10:06:55;;;;;;;;;;;;;;;42.84;34.60;101355.50;4889324;28;97859;-70
2023/09/06 10:09:21;;;;;;;;;;;;;;;42.65;34.16;101358.34;4853635;28;98346;-71
2023/09/06 10:11:47;;;;;;;;;;;;;;;42.81;34.62;101357.25;4873099;28;98362;-71
2023/09/06 10:14:14;;;;;;;;;;;;;;;43.02;33.94;101357.59;4889164;28;99682;-75
2023/09/06 10:16:40;;;;;;;;;;;;;;;43.22;33.83;101354.31;4871571;28;98817;-71
2023/09/06 10:19:06;;;;;;;;;;;;;;;43.57;33.56;101360.41;4881365;28;98126;-70
2023/09/06 10:21:32;;;;;;;;;;;;;;;43.87;33.59;101349.34;4871837;28;98312;-75
2023/09/06 10:23:59;;;;;;;;;;;;;;;44.18;33.47;101351.88;4888469;28;99572;-71
2023/09/06 10:26:26;;;;;;;;;;;;;;;44.28;33.40;101350.59;4883050;28;98365;-75
2023/09/06 10:28:57;;;;;;;;;;;;;;;44.43;33.36;101354.28;4869806;28;98533;-74
2023/09/06 10:31:33;;;;;;;;;;;;;;;44.56;33.37;101351.19;4866161;28;98011;-75
2023/09/06 10:33:59;;;;;;;;;;;;;;;44.76;33.24;101351.41;4886285;28;98927;-71
2023/09/06 10:36:27;;;;;;;;;;;;;;;44.81;33.36;101353.59;4866561;28;121327;-71
2023/09/06 10:38:55;;;;;;;;;;;;;;;44.86;33.51;101348.50;4887118;28;100027;-75
2023/09/06 10:41:21;;;;;;;;;;;;;;;44.86;33.58;101351.34;4883323;28;98315;-74
2023/09/06 10:44:07;;;;;;;;;;;;;;;44.84;33.30;101348.97;4863548;28;101721;-71
2023/09/06 10:46:36;;;;;;;;;;;;;;;45.00;33.50;101340.00;4901770;28;98230;-75
2023/09/06 10:49:25;;;;;;;;;;;;;;;45.06;33.47;101345.81;4877346;28;108317;-70
2023/09/06 10:51:55;;;;;;;;;;;;;;;44.93;33.36;101339.59;4885932;28;97981;-74
2023/09/06 10:54:34;;;;;;;;;;;;;;;44.81;33.50;101345.06;4885206;28;98356;-71
2023/09/06 10:57:14;;;;;;;;;;;;;;;44.71;33.36;101345.59;4873215;28;97990;-71
2023/09/06 10:59:59;;;;;;;;;;;;;;;44.39;33.70;101344.38;4885647;28;97990;-70
2023/09/06 11:02:26;;;;;;;;;;;;;;;43.76;33.94;101342.09;4880599;28;98371;-73
2023/09/06 11:05:09;;;;;;;;;;;;;;;43.37;34.14;101332.53;4854369;28;98183;-73
2023/09/06 11:07:43;;;;;;;;;;;;;;;42.92;34.46;101339.00;4863826;28;98100;-73
2023/09/06 11:10:12;;;;;;;;;;;;;;;42.46;34.81;101331.22;4870832;28;99306;-65
2023/09/06 11:12:39;;;;;;;;;;;;;;;42.10;34.88;101329.81;4854509;28;98303;-65
2023/09/06 11:15:06;;;;;;;;;;;;;;;42.04;34.88;101326.03;4885598;28;98318;-65
2023/09/06 11:17:33;;;;;;;;;;;;;;;42.19;34.57;101326.22;4877122;28;97930;-65
2023/09/06 11:20:18;;;;;;;;;;;;;;;42.49;34.28;101324.63;4872016;28;99912;-74
2023/09/06 11:22:58;;;;;;;;;;;;;;;42.78;34.04;101326.25;4885552;28;98496;-65
2023/09/06 11:25:25;;;;;;;;;;;;;;;42.80;34.42;101329.38;4869855;28;98191;-65
2023/09/06 11:27:51;;;;;;;;;;;;;;;42.63;34.44;101329.66;4880465;28;98409;-65
2023/09/06 11:30:26;;;;;;;;;;;;;;;42.51;34.05;101324.91;4875231;28;98506;-65
2023/09/06 11:32:53;;;;;;;;;;;;;;;42.54;34.37;101320.38;4854224;28;98096;-65
2023/09/06 11:35:22;;;;;;;;;;;;;;;42.49;34.23;101321.78;4897711;28;98911;-65
2023/09/06 11:37:50;;;;;;;;;;;;;;;42.38;34.34;101315.78;4869321;28;98164;-65
2023/09/06 11:40:20;;;;;;;;;;;;;;;42.31;34.42;101316.06;4882325;28;98810;-74
2023/09/06 11:42:52;;;;;;;;;;;;;;;42.20;34.61;101318.53;4881543;28;98063;-74
2023/09/06 11:45:20;;;;;;;;;;;;;;;42.06;34.57;101308.59;4877203;28;98458;-65
2023/09/06 11:47:46;;;;;;;;;;;;;;;41.92;35.07;101304.28;4855939;28;98172;-65
2023/09/06 11:50:15;;;;;;;;;;;;;;;41.78;35.13;101308.44;4871615;28;99556;-74
2023/09/06 11:52:46;;;;;;;;;;;;;;;41.61;35.36;101307.88;4867967;28;98482;-74
2023/09/06 11:55:16;;;;;;;;;;;;;;;41.50;35.43;101296.19;4877874;28;99272;-74
2023/09/06 11:57:47;;;;;;;;;;;;;;;41.39;35.41;101302.22;4885623;28;97959;-70
2023/09/06 12:00:19;;;;;;;;;;;;;;;41.34;35.24;101296.38;4868471;28;98426;-74
2023/09/06 12:02:49;;;;;;;;;;;;;;;41.15;35.41;101292.63;4867714;28;97910;-66
2023/09/06 12:05:16;;;;;;;;;;;;;;;40.99;35.46;101292.81;4882510;28;99487;-74
2023/09/06 12:07:46;;;;;;;;;;;;;;;40.87;35.52;101298.03;4871378;28;98338;-67
2023/09/06 12:10:17;;;;;;;;;;;;;;;40.77;35.81;101292.78;4882874;28;98454;-75
2023/09/06 12:12:43;;;;;;;;;;;;;;;40.63;35.93;101296.88;4869414;28;98543;-66
2023/09/06 12:15:20;;;;;;;;;;;;;;;40.47;35.99;101301.41;4885448;28;98324;-74
2023/09/06 12:17:49;;;;;;;;;;;;;;;40.28;36.21;101293.19;4865708;28;98341;-74
2023/09/06 12:20:23;;;;;;;;;;;;;;;40.14;36.07;101300.09;4887365;28;99547;-65
2023/09/06 12:22:51;;;;;;;;;;;;;;;39.92;36.22;101292.28;4886352;28;99019;-66
2023/09/06 12:25:21;;;;;;;;;;;;;;;39.78;36.18;101295.56;4882488;28;98283;-74
2023/09/06 12:27:50;;;;;;;;;;;;;;;39.64;36.21;101302.38;4868997;28;98337;-74
2023/09/06 12:30:18;;;;;;;;;;;;;;;39.50;36.62;101294.38;4871721;28;98080;-74
2023/09/06 12:32:44;;;;;;;;;;;;;;;39.26;36.45;101288.19;4886322;28;98146;-65
2023/09/06 12:35:11;;;;;;;;;;;;;;;39.07;36.41;101291.94;4883872;28;97882;-68
2023/09/06 12:37:37;;;;;;;;;;;;;;;38.91;36.47;101282.31;4885632;28;98144;-65
2023/09/06 12:40:10;;;;;;;;;;;;;;;38.81;36.86;101293.88;4883020;28;97994;-65
2023/09/06 12:42:46;;;;;;;;;;;;;;;38.66;36.67;101287.78;4867794;28;98150;-74
2023/09/06 12:45:30;;;;;;;;;;;;;;;38.44;36.98;101281.94;4878697;28;99590;-74